createdAt,value
2022-09-07T19:57:35.457Z,3.28
2022-09-07T19:58:41.826Z,3.05
2022-09-07T19:59:45.789Z,2.83
2022-09-07T20:00:50.612Z,2.47
2022-09-07T20:01:53.911Z,2.72
2022-09-07T20:02:58.553Z,2.70
2022-09-07T20:04:03.364Z,2.35
2022-09-07T20:05:08.761Z,2.70
2022-09-07T20:06:12.638Z,3.42
2022-09-07T20:07:17.469Z,2.50
2022-09-07T20:08:19.445Z,3.92
2022-09-07T20:09:25.122Z,3.90
2022-09-07T20:10:30.890Z,2.65
2022-09-07T20:11:35.995Z,2.95
2022-09-07T20:12:40.975Z,3.28
2022-09-07T20:13:43.643Z,2.90
2022-09-07T20:14:48.270Z,3.03
2022-09-07T20:15:50.349Z,7.63
2022-09-07T20:16:55.122Z,3.42
2022-09-07T20:17:57.172Z,3.13
2022-09-07T20:19:02.515Z,4.07
2022-09-07T20:20:05.786Z,17.38
2022-09-07T20:21:13.185Z,65.90
2022-09-07T20:22:15.154Z,70.70
2022-09-07T20:23:19.793Z,72.90
2022-09-07T20:24:22.919Z,3.15
2022-09-07T20:25:27.562Z,3.97
2022-09-07T20:26:32.862Z,3.45
2022-09-07T20:27:38.319Z,2.95
2022-09-07T20:28:41.148Z,2.95
2022-09-07T20:29:45.786Z,3.03
2022-09-07T20:30:47.826Z,3.08
2022-09-07T20:31:53.674Z,3.13
2022-09-07T20:32:58.679Z,3.33
2022-09-07T20:34:00.689Z,2.83
2022-09-07T20:35:05.335Z,2.58
2022-09-07T20:36:09.595Z,3.05
2022-09-07T20:37:14.200Z,2.65
2022-09-07T20:38:17.407Z,3.35
2022-09-07T20:39:23.360Z,2.90
2022-09-07T20:40:25.433Z,2.70
2022-09-07T20:41:32.516Z,3.28
2022-09-07T20:42:40.727Z,2.33
2022-09-07T20:43:42.827Z,2.58
2022-09-07T20:44:47.444Z,2.33
2022-09-07T20:45:49.815Z,2.88
2022-09-07T20:46:55.055Z,2.58
2022-09-07T20:47:57.065Z,3.63
2022-09-07T20:49:02.016Z,2.03
2022-09-07T20:50:07.261Z,2.30
2022-09-07T20:51:13.090Z,2.65
2022-09-07T20:52:17.668Z,2.97
2022-09-07T20:53:19.742Z,2.47
2022-09-07T20:54:24.419Z,2.60
2022-09-07T20:55:26.383Z,3.75
2022-09-07T20:56:32.166Z,822.95
2022-09-07T20:57:38.032Z,938.38
2022-09-07T20:58:43.456Z,964.58
2022-09-07T20:59:45.481Z,956.53
2022-09-07T21:00:53.284Z,888.75
2022-09-07T21:01:55.347Z,873.80
2022-09-07T21:02:59.960Z,894.78
2022-09-07T21:04:02.448Z,963.38
2022-09-07T21:05:07.936Z,968.17
2022-09-07T21:06:10.567Z,975.05
2022-09-07T21:07:15.168Z,964.50
2022-09-07T21:08:17.285Z,973.28
2022-09-07T21:09:22.135Z,968.58
2022-09-07T21:10:24.470Z,978.80
2022-09-07T21:11:31.372Z,983.33
2022-09-07T21:12:33.422Z,978.35
2022-09-07T21:13:40.907Z,970.17
2022-09-07T21:14:46.129Z,971.95
2022-09-07T21:15:48.250Z,968.63
2022-09-07T21:16:53.074Z,663.25
2022-09-07T21:17:55.058Z,974.25
2022-09-07T21:19:01.862Z,969.00
2022-09-07T21:20:04.628Z,973.88
2022-09-07T21:21:24.950Z,974.22
2022-09-07T21:22:26.917Z,971.28
2022-09-07T21:23:32.664Z,971.25
2022-09-07T21:24:34.782Z,972.58
2022-09-07T21:25:47.825Z,968.20
2022-09-07T21:26:51.180Z,952.42
2022-09-07T21:27:55.681Z,978.25
2022-09-07T21:29:02.022Z,975.55
2022-09-07T21:30:07.548Z,961.80
2022-09-07T21:31:09.866Z,981.50
2022-09-07T21:32:14.651Z,979.30
2022-09-07T21:33:16.844Z,972.38
2022-09-07T21:34:21.453Z,964.00
2022-09-07T21:35:24.159Z,969.45
2022-09-07T21:36:29.508Z,978.65
2022-09-07T21:37:31.836Z,962.67
2022-09-07T21:38:37.405Z,968.65
2022-09-07T21:39:39.433Z,964.05
2022-09-07T21:40:44.062Z,964.13
2022-09-07T21:41:46.089Z,967.58
2022-09-07T21:42:50.700Z,967.92
2022-09-07T21:43:57.760Z,968.65
2022-09-07T21:45:07.159Z,919.95
2022-09-07T21:46:11.064Z,803.25
2022-09-07T21:47:15.899Z,835.95
2022-09-07T21:48:18.279Z,882.70
2022-09-07T21:49:22.979Z,811.28
2022-09-07T21:50:24.942Z,292.80
2022-09-07T21:51:30.153Z,304.63
2022-09-07T21:52:32.158Z,141.77
2022-09-07T21:53:37.282Z,93.70
2022-09-07T21:54:39.275Z,74.47
2022-09-07T21:55:43.962Z,62.35
2022-09-07T21:56:46.778Z,57.33
2022-09-07T21:57:51.661Z,30.30
2022-09-07T21:58:55.179Z,46.78
2022-09-07T21:59:59.859Z,61.60
2022-09-07T22:01:24.339Z,88.93
2022-09-07T22:02:26.421Z,109.00
2022-09-07T22:03:31.139Z,213.38
2022-09-07T22:04:33.194Z,247.82
2022-09-07T22:05:39.317Z,288.58
2022-09-07T22:06:41.575Z,646.03
2022-09-07T22:07:48.937Z,640.83
2022-09-07T22:08:51.265Z,673.20
2022-09-07T22:09:55.868Z,570.28
2022-09-07T22:11:04.398Z,583.75
2022-09-07T22:12:09.481Z,592.03
2022-09-07T22:13:11.923Z,652.88
2022-09-07T22:14:16.832Z,597.38
2022-09-07T22:15:18.951Z,605.15
2022-09-07T22:16:26.481Z,671.00
2022-09-07T22:17:28.584Z,639.63
2022-09-07T22:18:33.536Z,638.70
2022-09-07T22:19:39.610Z,688.15
2022-09-07T22:20:41.721Z,698.30
2022-09-07T22:21:46.342Z,683.40
2022-09-07T22:22:48.383Z,672.08
2022-09-07T22:23:55.772Z,700.92
2022-09-07T22:24:57.909Z,712.83
2022-09-07T22:26:02.714Z,753.10
2022-09-07T22:27:05.133Z,735.63
2022-09-07T22:28:09.769Z,737.72
2022-09-07T22:29:12.594Z,794.55
2022-09-07T22:30:17.311Z,781.53
2022-09-07T22:31:21.496Z,871.75
2022-09-07T22:32:28.843Z,892.97
2022-09-07T22:33:30.895Z,943.40
2022-09-07T22:34:35.568Z,929.72
2022-09-07T22:35:37.609Z,908.85
2022-09-07T22:36:44.488Z,841.65
2022-09-07T22:37:46.580Z,918.88
2022-09-07T22:38:52.611Z,942.90
2022-09-07T22:39:57.311Z,941.55
2022-09-07T22:41:07.273Z,900.17
2022-09-07T22:42:12.140Z,907.25
2022-09-07T22:43:14.176Z,889.53
2022-09-07T22:44:21.053Z,870.72
2022-09-07T22:45:23.114Z,861.78
2022-09-07T22:46:29.767Z,904.00
2022-09-07T22:47:41.943Z,904.20
2022-09-07T22:48:47.143Z,931.83
2022-09-07T22:49:49.192Z,837.13
2022-09-07T22:50:57.725Z,773.22
2022-09-07T22:52:02.397Z,782.47
2022-09-07T22:53:04.385Z,784.58
2022-09-07T22:54:09.501Z,758.10
2022-09-07T22:55:12.499Z,762.40
2022-09-07T22:56:19.216Z,755.72
2022-09-07T22:57:21.269Z,849.00
2022-09-07T22:58:29.022Z,797.22
2022-09-07T22:59:33.727Z,796.70
2022-09-07T23:00:36.458Z,755.70
2022-09-07T23:01:41.878Z,784.17
2022-09-07T23:02:46.808Z,828.05
2022-09-07T23:03:52.023Z,745.53
2022-09-07T23:04:54.347Z,808.53
2022-09-07T23:06:00.700Z,775.35
2022-09-07T23:07:03.184Z,810.75
2022-09-07T23:08:08.227Z,726.15
2022-09-07T23:09:15.018Z,759.45
2022-09-07T23:10:17.685Z,740.15
2022-09-07T23:11:24.259Z,734.22
2022-09-07T23:12:26.273Z,762.17
2022-09-07T23:13:31.138Z,720.22
2022-09-07T23:14:36.158Z,717.58
2022-09-07T23:15:38.161Z,702.67
2022-09-07T23:16:42.901Z,853.53
2022-09-07T23:17:47.656Z,853.35
2022-09-07T23:18:52.716Z,877.83
2022-09-07T23:19:54.738Z,865.10
2022-09-07T23:21:00.898Z,867.85
2022-09-07T23:22:02.948Z,872.10
2022-09-07T23:23:07.652Z,857.20
2022-09-07T23:24:12.129Z,837.22
2022-09-07T23:25:16.946Z,797.60
2022-09-07T23:26:19.892Z,692.40
2022-09-07T23:27:24.946Z,662.42
2022-09-07T23:28:27.234Z,620.08
2022-09-07T23:29:31.878Z,531.20
2022-09-07T23:30:35.799Z,426.40
2022-09-07T23:31:40.849Z,512.63
2022-09-07T23:32:42.897Z,463.13
2022-09-07T23:33:50.272Z,455.45
2022-09-07T23:34:52.313Z,365.08
2022-09-07T23:36:01.983Z,248.10
2022-09-07T23:37:04.269Z,303.02
2022-09-07T23:38:09.012Z,425.05
2022-09-07T23:39:11.233Z,306.02
2022-09-07T23:40:16.752Z,185.60
2022-09-07T23:41:18.822Z,124.85
2022-09-07T23:42:23.421Z,112.57
2022-09-07T23:43:27.437Z,107.30
2022-09-07T23:44:32.129Z,44.67
2022-09-07T23:45:34.144Z,31.08
2022-09-07T23:46:38.917Z,67.72
2022-09-07T23:47:41.135Z,70.57
2022-09-07T23:48:46.532Z,91.07
2022-09-07T23:49:51.279Z,144.35
2022-09-07T23:50:56.304Z,106.13
2022-09-07T23:51:58.443Z,32.50
2022-09-07T23:53:03.420Z,178.80
2022-09-07T23:54:05.666Z,227.65
2022-09-07T23:55:11.882Z,130.18
2022-09-07T23:56:13.924Z,319.85
2022-09-07T23:57:18.530Z,410.08
2022-09-07T23:58:22.002Z,539.22
2022-09-07T23:59:26.684Z,415.73
